sensor_id;sensor_type;location;lat;lon;timestamp;pressure;altitude;pressure_sealevel;temperature;humidity
22335;BME280;11335;43.848;25.958;2023-08-30T00:45:48;99877.91;;;29.72;89.12
22335;BME280;11335;43.848;25.958;2023-08-30T00:48:35;99878.16;;;29.37;90.72
22335;BME280;11335;43.848;25.958;2023-08-30T00:51:21;99876.44;;;29.12;92.27
22335;BME280;11335;43.848;25.958;2023-08-30T00:54:06;99873.63;;;28.88;94.57
22335;BME280;11335;43.848;25.958;2023-08-30T00:56:54;99871.13;;;28.95;94.34
22335;BME280;11335;43.848;25.958;2023-08-30T00:59:40;99862.50;;;28.83;95.25
22335;BME280;11335;43.848;25.958;2023-08-30T01:02:25;99870.00;;;28.13;98.68
22335;BME280;11335;43.848;25.958;2023-08-30T01:05:12;99868.94;;;28.31;98.77
22335;BME280;11335;43.848;25.958;2023-08-30T01:07:57;99880.47;;;28.75;96.69
22335;BME280;11335;43.848;25.958;2023-08-30T01:11:06;99889.34;;;28.59;98.20
22335;BME280;11335;43.848;25.958;2023-08-30T01:13:59;99876.81;;;28.25;100.00
22335;BME280;11335;43.848;25.958;2023-08-30T01:16:46;99876.63;;;28.44;100.00
22335;BME280;11335;43.848;25.958;2023-08-30T01:19:53;99886.00;;;28.14;100.00
22335;BME280;11335;43.848;25.958;2023-08-30T01:22:58;99889.25;;;28.00;100.00
22335;BME280;11335;43.848;25.958;2023-08-30T01:28:56;99897.25;;;28.10;100.00
22335;BME280;11335;43.848;25.958;2023-08-30T01:31:47;99901.28;;;27.88;100.00
22335;BME280;11335;43.848;25.958;2023-08-30T01:34:34;99893.97;;;27.98;100.00
22335;BME280;11335;43.848;25.958;2023-08-30T01:37:21;99886.28;;;27.86;100.00
22335;BME280;11335;43.848;25.958;2023-08-30T01:40:08;99889.06;;;27.41;100.00
22335;BME280;11335;43.848;25.958;2023-08-30T01:42:55;99887.13;;;27.51;100.00
22335;BME280;11335;43.848;25.958;2023-08-30T01:45:43;99890.44;;;27.63;100.00
22335;BME280;11335;43.848;25.958;2023-08-30T01:48:29;99897.69;;;27.62;100.00
22335;BME280;11335;43.848;25.958;2023-08-30T01:51:16;99884.81;;;27.74;100.00
22335;BME280;11335;43.848;25.958;2023-08-30T01:54:04;99886.34;;;27.76;100.00
22335;BME280;11335;43.848;25.958;2023-08-30T01:56:49;99876.75;;;27.56;100.00
22335;BME280;11335;43.848;25.958;2023-08-30T01:59:35;99877.06;;;26.54;100.00
22335;BME280;11335;43.848;25.958;2023-08-30T02:02:21;99869.94;;;26.72;100.00
22335;BME280;11335;43.848;25.958;2023-08-30T02:05:07;99876.84;;;26.75;100.00
22335;BME280;11335;43.848;25.958;2023-08-30T02:08:02;99870.41;;;26.68;100.00
22335;BME280;11335;43.848;25.958;2023-08-30T02:10:56;99872.75;;;26.71;100.00
22335;BME280;11335;43.848;25.958;2023-08-30T02:13:42;99868.56;;;27.13;100.00
22335;BME280;11335;43.848;25.958;2023-08-30T02:16:30;99873.06;;;26.95;100.00
22335;BME280;11335;43.848;25.958;2023-08-30T02:19:17;99876.91;;;26.92;100.00
22335;BME280;11335;43.848;25.958;2023-08-30T02:22:06;99872.13;;;26.86;100.00
22335;BME280;11335;43.848;25.958;2023-08-30T02:24:52;99869.16;;;26.53;100.00
22335;BME280;11335;43.848;25.958;2023-08-30T02:27:38;99861.31;;;26.69;100.00
22335;BME280;11335;43.848;25.958;2023-08-30T02:30:23;99866.00;;;26.94;100.00
22335;BME280;11335;43.848;25.958;2023-08-30T02:33:09;99864.25;;;26.75;100.00
22335;BME280;11335;43.848;25.958;2023-08-30T02:35:55;99865.13;;;27.20;100.00
22335;BME280;11335;43.848;25.958;2023-08-30T02:38:40;99863.53;;;27.00;100.00
22335;BME280;11335;43.848;25.958;2023-08-30T02:41:26;99868.28;;;26.62;100.00
22335;BME280;11335;43.848;25.958;2023-08-30T02:44:12;99865.81;;;26.78;100.00
22335;BME280;11335;43.848;25.958;2023-08-30T02:46:58;99874.09;;;26.84;100.00
22335;BME280;11335;43.848;25.958;2023-08-30T02:49:43;99871.66;;;26.91;100.00
22335;BME280;11335;43.848;25.958;2023-08-30T02:52:29;99882.41;;;26.91;100.00
22335;BME280;11335;43.848;25.958;2023-08-30T02:55:15;99885.50;;;26.96;100.00
22335;BME280;11335;43.848;25.958;2023-08-30T02:58:01;99883.47;;;26.80;100.00
22335;BME280;11335;43.848;25.958;2023-08-30T03:00:47;99894.09;;;26.36;100.00
22335;BME280;11335;43.848;25.958;2023-08-30T03:03:33;99902.09;;;25.99;100.00
22335;BME280;11335;43.848;25.958;2023-08-30T03:06:18;99903.50;;;26.13;100.00
22335;BME280;11335;43.848;25.958;2023-08-30T03:09:04;99900.97;;;26.02;100.00
22335;BME280;11335;43.848;25.958;2023-08-30T03:11:51;99899.41;;;26.09;100.00
22335;BME280;11335;43.848;25.958;2023-08-30T03:14:37;99909.31;;;25.80;100.00
22335;BME280;11335;43.848;25.958;2023-08-30T03:17:23;99900.53;;;25.78;100.00
22335;BME280;11335;43.848;25.958;2023-08-30T03:20:10;99899.38;;;25.90;100.00
22335;BME280;11335;43.848;25.958;2023-08-30T03:22:56;99902.34;;;26.25;100.00
22335;BME280;11335;43.848;25.958;2023-08-30T03:25:43;99907.88;;;25.76;100.00
22335;BME280;11335;43.848;25.958;2023-08-30T03:28:29;99903.72;;;25.24;100.00
22335;BME280;11335;43.848;25.958;2023-08-30T03:34:01;99911.13;;;25.60;100.00
22335;BME280;11335;43.848;25.958;2023-08-30T03:36:47;99910.41;;;25.30;100.00
22335;BME280;11335;43.848;25.958;2023-08-30T03:39:39;99915.75;;;25.30;100.00
22335;BME280;11335;43.848;25.958;2023-08-30T03:42:25;99911.97;;;25.42;100.00
22335;BME280;11335;43.848;25.958;2023-08-30T03:45:11;99908.59;;;25.00;100.00
22335;BME280;11335;43.848;25.958;2023-08-30T03:47:56;99914.44;;;25.24;100.00
22335;BME280;11335;43.848;25.958;2023-08-30T03:50:42;99906.19;;;25.37;100.00
22335;BME280;11335;43.848;25.958;2023-08-30T03:53:28;99920.78;;;25.23;100.00
22335;BME280;11335;43.848;25.958;2023-08-30T03:56:15;99908.59;;;25.00;100.00
22335;BME280;11335;43.848;25.958;2023-08-30T03:59:01;99916.13;;;25.16;100.00
22335;BME280;11335;43.848;25.958;2023-08-30T04:01:47;99911.94;;;25.32;100.00
22335;BME280;11335;43.848;25.958;2023-08-30T04:04:33;99911.94;;;25.23;100.00
22335;BME280;11335;43.848;25.958;2023-08-30T04:07:19;99916.16;;;25.25;100.00
22335;BME280;11335;43.848;25.958;2023-08-30T04:10:05;99921.66;;;25.24;100.00
22335;BME280;11335;43.848;25.958;2023-08-30T04:12:52;99910.72;;;24.97;100.00
22335;BME280;11335;43.848;25.958;2023-08-30T04:15:39;99916.66;;;25.00;100.00
22335;BME280;11335;43.848;25.958;2023-08-30T04:18:24;99922.31;;;24.67;100.00
22335;BME280;11335;43.848;25.958;2023-08-30T04:21:10;99924.47;;;25.22;100.00
22335;BME280;11335;43.848;25.958;2023-08-30T04:23:56;99929.66;;;25.05;100.00
22335;BME280;11335;43.848;25.958;2023-08-30T04:26:41;99927.97;;;25.04;100.00
22335;BME280;11335;43.848;25.958;2023-08-30T04:29:27;99938.19;;;25.29;100.00
22335;BME280;11335;43.848;25.958;2023-08-30T04:32:13;99941.50;;;25.02;100.00
22335;BME280;11335;43.848;25.958;2023-08-30T04:34:59;99941.59;;;25.40;100.00
22335;BME280;11335;43.848;25.958;2023-08-30T04:37:44;99937.81;;;25.43;100.00
22335;BME280;11335;43.848;25.958;2023-08-30T04:40:31;99939.94;;;25.49;100.00
22335;BME280;11335;43.848;25.958;2023-08-30T04:43:17;99943.47;;;25.68;100.00
22335;BME280;11335;43.848;25.958;2023-08-30T04:46:03;99944.75;;;25.45;100.00
22335;BME280;11335;43.848;25.958;2023-08-30T04:48:49;99953.34;;;25.87;100.00
22335;BME280;11335;43.848;25.958;2023-08-30T04:51:34;99959.31;;;25.81;100.00
22335;BME280;11335;43.848;25.958;2023-08-30T04:54:20;99965.34;;;25.92;100.00
22335;BME280;11335;43.848;25.958;2023-08-30T04:57:06;99963.28;;;25.96;100.00
22335;BME280;11335;43.848;25.958;2023-08-30T04:59:51;99968.75;;;25.47;100.00
22335;BME280;11335;43.848;25.958;2023-08-30T05:02:37;99977.81;;;25.16;100.00
22335;BME280;11335;43.848;25.958;2023-08-30T05:05:23;99984.72;;;25.77;100.00
22335;BME280;11335;43.848;25.958;2023-08-30T05:08:09;100007.09;;;26.15;100.00
22335;BME280;11335;43.848;25.958;2023-08-30T05:10:55;100012.91;;;26.01;100.00
22335;BME280;11335;43.848;25.958;2023-08-30T05:13:40;100013.69;;;25.73;100.00
22335;BME280;11335;43.848;25.958;2023-08-30T05:16:26;100012.13;;;25.80;100.00
22335;BME280;11335;43.848;25.958;2023-08-30T05:19:12;100007.31;;;25.65;100.00
22335;BME280;11335;43.848;25.958;2023-08-30T05:21:57;100004.66;;;26.12;100.00
22335;BME280;11335;43.848;25.958;2023-08-30T05:24:43;100016.06;;;26.52;100.00
22335;BME280;11335;43.848;25.958;2023-08-30T05:27:29;100016.69;;;26.27;100.00
22335;BME280;11335;43.848;25.958;2023-08-30T05:30:15;100022.59;;;26.31;100.00
22335;BME280;11335;43.848;25.958;2023-08-30T05:33:01;100028.97;;;26.39;100.00
22335;BME280;11335;43.848;25.958;2023-08-30T05:35:47;100028.38;;;26.45;100.00
22335;BME280;11335;43.848;25.958;2023-08-30T05:38:33;100018.19;;;25.73;100.00
22335;BME280;11335;43.848;25.958;2023-08-30T05:41:19;100030.38;;;26.53;100.00
22335;BME280;11335;43.848;25.958;2023-08-30T05:44:05;100034.88;;;26.71;100.00
22335;BME280;11335;43.848;25.958;2023-08-30T05:46:51;100037.31;;;26.36;100.00
22335;BME280;11335;43.848;25.958;2023-08-30T05:49:37;100035.75;;;26.15;100.00
22335;BME280;11335;43.848;25.958;2023-08-30T05:52:22;100042.72;;;26.08;100.00
22335;BME280;11335;43.848;25.958;2023-08-30T05:55:09;100040.72;;;26.10;100.00
22335;BME280;11335;43.848;25.958;2023-08-30T05:57:55;100043.69;;;26.16;100.00
22335;BME280;11335;43.848;25.958;2023-08-30T06:00:41;100047.63;;;26.41;100.00
22335;BME280;11335;43.848;25.958;2023-08-30T06:03:27;100050.47;;;26.68;100.00
22335;BME280;11335;43.848;25.958;2023-08-30T06:06:13;100049.03;;;26.45;100.00
22335;BME280;11335;43.848;25.958;2023-08-30T06:08:59;100052.16;;;26.50;100.00
22335;BME280;11335;43.848;25.958;2023-08-30T06:11:45;100053.56;;;26.54;100.00
22335;BME280;11335;43.848;25.958;2023-08-30T06:14:31;100061.47;;;26.55;100.00
22335;BME280;11335;43.848;25.958;2023-08-30T06:17:16;100054.00;;;26.40;100.00
22335;BME280;11335;43.848;25.958;2023-08-30T06:20:02;100054.44;;;25.97;100.00
22335;BME280;11335;43.848;25.958;2023-08-30T06:22:48;100056.13;;;26.36;100.00
22335;BME280;11335;43.848;25.958;2023-08-30T06:25:34;100060.22;;;26.69;100.00
22335;BME280;11335;43.848;25.958;2023-08-30T06:28:20;100060.63;;;26.64;100.00
22335;BME280;11335;43.848;25.958;2023-08-30T06:31:05;100057.97;;;26.36;100.00
22335;BME280;11335;43.848;25.958;2023-08-30T06:33:51;100061.91;;;26.70;100.00
22335;BME280;11335;43.848;25.958;2023-08-30T06:36:38;100061.53;;;27.01;100.00
22335;BME280;11335;43.848;25.958;2023-08-30T06:39:23;100057.53;;;27.24;100.00
22335;BME280;11335;43.848;25.958;2023-08-30T06:42:09;100056.94;;;27.30;100.00
22335;BME280;11335;43.848;25.958;2023-08-30T06:44:55;100063.44;;;27.28;100.00
22335;BME280;11335;43.848;25.958;2023-08-30T06:47:40;100072.16;;;27.03;100.00
22335;BME280;11335;43.848;25.958;2023-08-30T06:50:26;100055.06;;;27.31;100.00
22335;BME280;11335;43.848;25.958;2023-08-30T06:53:12;100063.16;;;26.85;100.00
22335;BME280;11335;43.848;25.958;2023-08-30T06:56:01;100075.44;;;26.97;100.00
22335;BME280;11335;43.848;25.958;2023-08-30T06:58:47;100067.06;;;27.46;100.00
22335;BME280;11335;43.848;25.958;2023-08-30T07:01:33;100056.56;;;27.70;100.00
22335;BME280;11335;43.848;25.958;2023-08-30T07:04:19;100064.41;;;27.64;100.00
22335;BME280;11335;43.848;25.958;2023-08-30T07:07:04;100068.63;;;27.39;100.00
22335;BME280;11335;43.848;25.958;2023-08-30T07:09:50;100073.13;;;27.48;100.00
22335;BME280;11335;43.848;25.958;2023-08-30T07:12:36;100064.38;;;27.91;100.00
22335;BME280;11335;43.848;25.958;2023-08-30T07:15:21;100066.03;;;27.84;100.00
22335;BME280;11335;43.848;25.958;2023-08-30T07:18:08;100066.75;;;27.49;100.00
22335;BME280;11335;43.848;25.958;2023-08-30T07:20:54;100058.69;;;27.67;100.00
22335;BME280;11335;43.848;25.958;2023-08-30T07:23:40;100061.50;;;28.19;100.00
22335;BME280;11335;43.848;25.958;2023-08-30T07:26:26;100061.47;;;28.02;100.00
22335;BME280;11335;43.848;25.958;2023-08-30T07:29:11;100061.88;;;28.24;100.00
22335;BME280;11335;43.848;25.958;2023-08-30T07:31:57;100059.84;;;28.61;100.00
22335;BME280;11335;43.848;25.958;2023-08-30T07:34:43;100055.47;;;28.25;100.00
22335;BME280;11335;43.848;25.958;2023-08-30T07:37:29;100049.28;;;27.80;100.00
22335;BME280;11335;43.848;25.958;2023-08-30T07:40:15;100046.59;;;28.42;100.00
22335;BME280;11335;43.848;25.958;2023-08-30T07:43:01;100056.91;;;28.72;100.00
22335;BME280;11335;43.848;25.958;2023-08-30T07:45:47;100049.59;;;28.82;100.00
22335;BME280;11335;43.848;25.958;2023-08-30T07:48:32;100047.09;;;28.89;100.00
22335;BME280;11335;43.848;25.958;2023-08-30T07:51:18;100041.88;;;28.44;100.00
22335;BME280;11335;43.848;25.958;2023-08-30T07:54:04;100042.88;;;28.86;100.00
22335;BME280;11335;43.848;25.958;2023-08-30T07:56:50;100049.13;;;28.69;100.00
22335;BME280;11335;43.848;25.958;2023-08-30T07:59:36;100054.66;;;29.78;100.00
22335;BME280;11335;43.848;25.958;2023-08-30T08:02:22;100044.16;;;29.67;100.00
22335;BME280;11335;43.848;25.958;2023-08-30T08:05:08;100045.09;;;29.99;99.11
22335;BME280;11335;43.848;25.958;2023-08-30T08:07:59;100041.34;;;30.00;99.27
22335;BME280;11335;43.848;25.958;2023-08-30T08:10:45;100044.78;;;30.50;96.88
22335;BME280;11335;43.848;25.958;2023-08-30T08:13:31;100051.53;;;30.46;97.76
22335;BME280;11335;43.848;25.958;2023-08-30T08:16:16;100045.47;;;30.60;96.00
22335;BME280;11335;43.848;25.958;2023-08-30T08:19:02;100054.25;;;30.78;94.76
22335;BME280;11335;43.848;25.958;2023-08-30T08:21:48;100043.25;;;30.56;95.88
22335;BME280;11335;43.848;25.958;2023-08-30T08:24:34;100039.00;;;30.05;98.90
22335;BME280;11335;43.848;25.958;2023-08-30T08:27:20;100040.19;;;31.07;95.25
22335;BME280;11335;43.848;25.958;2023-08-30T08:30:06;100045.22;;;31.18;93.17
22335;BME280;11335;43.848;25.958;2023-08-30T08:32:52;100043.28;;;31.81;89.01
22335;BME280;11335;43.848;25.958;2023-08-30T08:35:38;100050.63;;;32.03;86.74
22335;BME280;11335;43.848;25.958;2023-08-30T08:38:25;100054.56;;;32.23;85.78
22335;BME280;11335;43.848;25.958;2023-08-30T08:41:12;100048.25;;;32.00;86.52
22335;BME280;11335;43.848;25.958;2023-08-30T08:44:00;100038.34;;;31.93;87.33
22335;BME280;11335;43.848;25.958;2023-08-30T08:46:47;100040.56;;;32.34;85.03
22335;BME280;11335;43.848;25.958;2023-08-30T08:49:33;100039.25;;;31.69;88.99
22335;BME280;11335;43.848;25.958;2023-08-30T08:52:19;100046.19;;;32.02;85.94
22335;BME280;11335;43.848;25.958;2023-08-30T08:55:05;100046.63;;;32.44;81.69
22335;BME280;11335;43.848;25.958;2023-08-30T08:57:51;100050.72;;;32.77;78.91
22335;BME280;11335;43.848;25.958;2023-08-30T09:00:38;100052.66;;;32.24;80.81
22335;BME280;11335;43.848;25.958;2023-08-30T09:03:24;100046.72;;;32.51;82.21
22335;BME280;11335;43.848;25.958;2023-08-30T09:06:10;100039.47;;;32.66;81.20
22335;BME280;11335;43.848;25.958;2023-08-30T09:08:56;100034.59;;;32.76;79.96
22335;BME280;11335;43.848;25.958;2023-08-30T09:11:42;100029.53;;;32.73;80.97
22335;BME280;11335;43.848;25.958;2023-08-30T09:14:27;100028.63;;;32.66;80.49
22335;BME280;11335;43.848;25.958;2023-08-30T09:17:13;100030.69;;;32.19;80.93
22335;BME280;11335;43.848;25.958;2023-08-30T09:20:06;100015.72;;;31.39;85.43
22335;BME280;11335;43.848;25.958;2023-08-30T09:22:52;100016.66;;;31.54;85.87
22335;BME280;11335;43.848;25.958;2023-08-30T09:25:37;100010.91;;;32.55;80.78
22335;BME280;11335;43.848;25.958;2023-08-30T09:28:23;100007.84;;;32.73;80.09
22335;BME280;11335;43.848;25.958;2023-08-30T09:31:17;100004.97;;;32.89;78.50
22335;BME280;11335;43.848;25.958;2023-08-30T09:34:04;100010.53;;;32.73;80.76
22335;BME280;11335;43.848;25.958;2023-08-30T09:36:50;100003.03;;;32.83;79.54
22335;BME280;11335;43.848;25.958;2023-08-30T09:39:36;100004.97;;;33.03;79.02
22335;BME280;11335;43.848;25.958;2023-08-30T09:42:22;100002.03;;;32.76;80.82
22335;BME280;11335;43.848;25.958;2023-08-30T09:45:23;99994.47;;;31.59;85.35
22335;BME280;11335;43.848;25.958;2023-08-30T09:48:09;99997.72;;;32.52;83.08
22335;BME280;11335;43.848;25.958;2023-08-30T09:50:57;99995.53;;;32.48;82.80
22335;BME280;11335;43.848;25.958;2023-08-30T09:53:45;99991.19;;;30.86;92.35
22335;BME280;11335;43.848;25.958;2023-08-30T09:56:35;99990.72;;;31.29;89.64
22335;BME280;11335;43.848;25.958;2023-08-30T09:59:21;99985.06;;;32.00;86.94
22335;BME280;11335;43.848;25.958;2023-08-30T10:02:08;99985.50;;;32.34;84.63
22335;BME280;11335;43.848;25.958;2023-08-30T10:04:54;99983.84;;;32.25;82.11
22335;BME280;11335;43.848;25.958;2023-08-30T10:07:41;99982.84;;;32.48;82.33
22335;BME280;11335;43.848;25.958;2023-08-30T10:10:30;99981.13;;;32.25;82.12
22335;BME280;11335;43.848;25.958;2023-08-30T10:13:17;99977.84;;;32.15;81.74
22335;BME280;11335;43.848;25.958;2023-08-30T10:16:04;99980.00;;;33.37;77.00
22335;BME280;11335;43.848;25.958;2023-08-30T10:18:54;99977.47;;;33.35;74.95
22335;BME280;11335;43.848;25.958;2023-08-30T10:21:40;99968.25;;;32.78;76.63
22335;BME280;11335;43.848;25.958;2023-08-30T10:24:28;99969.22;;;33.14;76.49
22335;BME280;11335;43.848;25.958;2023-08-30T10:27:16;99965.41;;;32.43;74.91
22335;BME280;11335;43.848;25.958;2023-08-30T10:30:04;99963.16;;;32.98;72.32
22335;BME280;11335;43.848;25.958;2023-08-30T10:32:50;99966.03;;;32.67;69.55
22335;BME280;11335;43.848;25.958;2023-08-30T10:35:49;99961.94;;;33.15;65.01
22335;BME280;11335;43.848;25.958;2023-08-30T10:38:36;99967.66;;;32.91;73.05
22335;BME280;11335;43.848;25.958;2023-08-30T10:41:26;99963.69;;;33.37;72.91
22335;BME280;11335;43.848;25.958;2023-08-30T10:44:13;99961.13;;;33.64;72.54
22335;BME280;11335;43.848;25.958;2023-08-30T10:47:01;99949.88;;;33.53;72.59
22335;BME280;11335;43.848;25.958;2023-08-30T10:49:49;99953.91;;;33.78;70.68
22335;BME280;11335;43.848;25.958;2023-08-30T10:52:35;99954.59;;;33.80;68.14
22335;BME280;11335;43.848;25.958;2023-08-30T10:55:22;99949.63;;;33.83;65.25
22335;BME280;11335;43.848;25.958;2023-08-30T10:58:13;99953.63;;;34.08;66.61
22335;BME280;11335;43.848;25.958;2023-08-30T11:00:59;99950.31;;;34.13;65.13
22335;BME280;11335;43.848;25.958;2023-08-30T11:03:45;99949.97;;;33.59;67.67
22335;BME280;11335;43.848;25.958;2023-08-30T11:06:31;99940.22;;;33.86;65.80
22335;BME280;11335;43.848;25.958;2023-08-30T11:09:18;99932.88;;;34.28;63.89
22335;BME280;11335;43.848;25.958;2023-08-30T11:12:05;99932.38;;;34.39;63.51
22335;BME280;11335;43.848;25.958;2023-08-30T11:14:52;99931.25;;;34.55;61.85
22335;BME280;11335;43.848;25.958;2023-08-30T11:17:39;99935.03;;;34.33;64.55
22335;BME280;11335;43.848;25.958;2023-08-30T11:20:25;99930.63;;;34.87;63.08
22335;BME280;11335;43.848;25.958;2023-08-30T11:23:11;99915.63;;;34.36;64.34
22335;BME280;11335;43.848;25.958;2023-08-30T11:25:56;99914.06;;;34.82;60.61
22335;BME280;11335;43.848;25.958;2023-08-30T11:28:42;99902.00;;;34.97;57.59
22335;BME280;11335;43.848;25.958;2023-08-30T11:31:31;99899.47;;;34.96;56.42
22335;BME280;11335;43.848;25.958;2023-08-30T11:34:20;99885.41;;;35.33;54.01
22335;BME280;11335;43.848;25.958;2023-08-30T11:37:07;99893.97;;;35.30;56.13
22335;BME280;11335;43.848;25.958;2023-08-30T11:39:54;99890.00;;;35.39;53.83
22335;BME280;11335;43.848;25.958;2023-08-30T11:42:41;99888.75;;;35.42;53.72
22335;BME280;11335;43.848;25.958;2023-08-30T11:45:31;99888.66;;;35.76;52.79
22335;BME280;11335;43.848;25.958;2023-08-30T11:48:17;99882.28;;;35.49;53.71
22335;BME280;11335;43.848;25.958;2023-08-30T11:51:03;99879.03;;;35.19;54.26
22335;BME280;11335;43.848;25.958;2023-08-30T11:53:49;99874.31;;;34.94;54.24
22335;BME280;11335;43.848;25.958;2023-08-30T11:56:35;99874.97;;;35.56;53.10
22335;BME280;11335;43.848;25.958;2023-08-30T11:59:22;99867.16;;;35.34;53.25
22335;BME280;11335;43.848;25.958;2023-08-30T12:02:08;99872.66;;;35.60;52.13
22335;BME280;11335;43.848;25.958;2023-08-30T12:04:54;99858.38;;;35.51;53.30
22335;BME280;11335;43.848;25.958;2023-08-30T12:07:40;99860.50;;;35.49;52.71
22335;BME280;11335;43.848;25.958;2023-08-30T12:10:26;99859.69;;;35.68;52.67
22335;BME280;11335;43.848;25.958;2023-08-30T12:13:31;99857.38;;;35.59;52.99
22335;BME280;11335;43.848;25.958;2023-08-30T12:16:17;99851.28;;;35.63;53.21
22335;BME280;11335;43.848;25.958;2023-08-30T12:19:10;99847.06;;;35.54;53.73
22335;BME280;11335;43.848;25.958;2023-08-30T12:22:05;99847.94;;;35.55;52.61
22335;BME280;11335;43.848;25.958;2023-08-30T12:24:51;99846.28;;;35.73;52.44
22335;BME280;11335;43.848;25.958;2023-08-30T12:27:39;99850.06;;;35.72;52.20
22335;BME280;11335;43.848;25.958;2023-08-30T12:30:24;99850.69;;;36.00;50.78
22335;BME280;11335;43.848;25.958;2023-08-30T12:33:10;99848.19;;;35.06;52.77
22335;BME280;11335;43.848;25.958;2023-08-30T12:35:56;99842.06;;;35.71;52.96
22335;BME280;11335;43.848;25.958;2023-08-30T12:38:42;99844.34;;;35.67;52.68
22335;BME280;11335;43.848;25.958;2023-08-30T12:41:28;99844.16;;;35.49;51.62
22335;BME280;11335;43.848;25.958;2023-08-30T12:44:13;99828.00;;;35.61;52.37
22335;BME280;11335;43.848;25.958;2023-08-30T12:46:59;99834.25;;;35.35;52.71
22335;BME280;11335;43.848;25.958;2023-08-30T12:49:45;99833.94;;;35.84;51.05
22335;BME280;11335;43.848;25.958;2023-08-30T12:52:30;99829.06;;;35.73;51.63
22335;BME280;11335;43.848;25.958;2023-08-30T12:55:16;99822.81;;;35.98;49.50
22335;BME280;11335;43.848;25.958;2023-08-30T12:58:04;99817.31;;;35.66;49.75
22335;BME280;11335;43.848;25.958;2023-08-30T13:00:50;99814.56;;;35.46;49.68
22335;BME280;11335;43.848;25.958;2023-08-30T13:03:35;99807.00;;;35.29;50.70
22335;BME280;11335;43.848;25.958;2023-08-30T13:06:21;99794.81;;;35.24;51.00
22335;BME280;11335;43.848;25.958;2023-08-30T13:09:07;99793.81;;;35.52;51.42
22335;BME280;11335;43.848;25.958;2023-08-30T13:11:53;99791.75;;;35.67;50.85
22335;BME280;11335;43.848;25.958;2023-08-30T13:14:38;99786.06;;;35.42;50.22
22335;BME280;11335;43.848;25.958;2023-08-30T13:17:24;99792.56;;;35.41;52.01
22335;BME280;11335;43.848;25.958;2023-08-30T13:20:10;99792.72;;;35.27;52.23
22335;BME280;11335;43.848;25.958;2023-08-30T13:22:56;99780.19;;;35.71;49.18
22335;BME280;11335;43.848;25.958;2023-08-30T13:25:42;99775.16;;;35.29;49.81
22335;BME280;11335;43.848;25.958;2023-08-30T13:28:27;99778.75;;;35.43;49.55
22335;BME280;11335;43.848;25.958;2023-08-30T13:31:14;99777.47;;;35.58;49.80
22335;BME280;11335;43.848;25.958;2023-08-30T13:34:00;99787.16;;;35.80;47.71
22335;BME280;11335;43.848;25.958;2023-08-30T13:36:45;99786.13;;;34.95;49.22
22335;BME280;11335;43.848;25.958;2023-08-30T13:39:31;99789.63;;;35.43;48.78
22335;BME280;11335;43.848;25.958;2023-08-30T13:42:17;99778.94;;;35.61;48.95
22335;BME280;11335;43.848;25.958;2023-08-30T13:45:03;99782.31;;;35.69;48.62
22335;BME280;11335;43.848;25.958;2023-08-30T13:47:49;99791.53;;;35.75;48.85
22335;BME280;11335;43.848;25.958;2023-08-30T13:50:41;99791.50;;;35.55;49.76
22335;BME280;11335;43.848;25.958;2023-08-30T13:53:27;99791.31;;;35.44;48.41
22335;BME280;11335;43.848;25.958;2023-08-30T13:56:13;99798.22;;;35.40;48.57
22335;BME280;11335;43.848;25.958;2023-08-30T13:58:59;99802.06;;;34.98;49.91
22335;BME280;11335;43.848;25.958;2023-08-30T14:01:45;99806.13;;;35.22;49.82
22335;BME280;11335;43.848;25.958;2023-08-30T14:04:30;99810.81;;;35.73;48.88
22335;BME280;11335;43.848;25.958;2023-08-30T14:07:18;99802.78;;;35.26;49.50
22335;BME280;11335;43.848;25.958;2023-08-30T14:10:04;99809.25;;;35.12;50.08
22335;BME280;11335;43.848;25.958;2023-08-30T14:12:50;99810.63;;;34.95;50.13
22335;BME280;11335;43.848;25.958;2023-08-30T14:15:36;99802.81;;;34.79;52.00
22335;BME280;11335;43.848;25.958;2023-08-30T14:18:22;99802.13;;;34.64;52.38
22335;BME280;11335;43.848;25.958;2023-08-30T14:21:07;99808.78;;;35.02;50.82
22335;BME280;11335;43.848;25.958;2023-08-30T14:23:53;99806.81;;;34.83;52.56
22335;BME280;11335;43.848;25.958;2023-08-30T14:26:39;99819.47;;;33.95;53.09
22335;BME280;11335;43.848;25.958;2023-08-30T14:29:25;99805.22;;;33.72;53.33
22335;BME280;11335;43.848;25.958;2023-08-30T14:32:11;99801.31;;;33.81;54.02
22335;BME280;11335;43.848;25.958;2023-08-30T14:34:57;99806.56;;;33.55;55.09
22335;BME280;11335;43.848;25.958;2023-08-30T14:37:42;99807.28;;;33.70;55.74
22335;BME280;11335;43.848;25.958;2023-08-30T14:40:28;99812.81;;;33.34;56.27
22335;BME280;11335;43.848;25.958;2023-08-30T14:43:14;99818.72;;;33.02;57.55
22335;BME280;11335;43.848;25.958;2023-08-30T14:46:01;99830.16;;;33.54;56.41
22335;BME280;11335;43.848;25.958;2023-08-30T14:48:46;99834.34;;;33.36;56.65
22335;BME280;11335;43.848;25.958;2023-08-30T14:51:32;99828.63;;;33.45;55.00
22335;BME280;11335;43.848;25.958;2023-08-30T14:54:18;99823.03;;;33.74;55.11
22335;BME280;11335;43.848;25.958;2023-08-30T14:57:04;99821.69;;;33.85;54.95
22335;BME280;11335;43.848;25.958;2023-08-30T14:59:50;99836.41;;;33.97;53.57
22335;BME280;11335;43.848;25.958;2023-08-30T15:02:35;99834.50;;;33.91;53.92
22335;BME280;11335;43.848;25.958;2023-08-30T15:05:21;99837.06;;;33.99;53.80
22335;BME280;11335;43.848;25.958;2023-08-30T15:08:07;99832.66;;;33.98;54.39
22335;BME280;11335;43.848;25.958;2023-08-30T15:10:52;99837.16;;;33.84;54.08
22335;BME280;11335;43.848;25.958;2023-08-30T15:13:38;99819.88;;;33.14;56.33